sensor_id;sensor_type;location;lat;lon;timestamp;temperature;humidity
4058;DHT22;2044;48.692;9.020;2023-02-01T00:01:44;1.80;99.90
4058;DHT22;2044;48.692;9.020;2023-02-01T00:04:11;1.80;99.90
4058;DHT22;2044;48.692;9.020;2023-02-01T00:06:39;1.80;99.90
4058;DHT22;2044;48.692;9.020;2023-02-01T00:09:06;1.80;99.90
4058;DHT22;2044;48.692;9.020;2023-02-01T00:11:33;1.80;99.90
4058;DHT22;2044;48.692;9.020;2023-02-01T00:14:00;1.70;99.90
4058;DHT22;2044;48.692;9.020;2023-02-01T00:16:29;1.70;99.90
4058;DHT22;2044;48.692;9.020;2023-02-01T00:18:59;1.80;99.90
4058;DHT22;2044;48.692;9.020;2023-02-01T00:21:26;1.80;99.90
4058;DHT22;2044;48.692;9.020;2023-02-01T00:23:54;1.80;99.90
4058;DHT22;2044;48.692;9.020;2023-02-01T00:26:27;1.80;99.90
4058;DHT22;2044;48.692;9.020;2023-02-01T00:28:54;1.80;99.90
4058;DHT22;2044;48.692;9.020;2023-02-01T00:36:15;1.80;99.90
4058;DHT22;2044;48.692;9.020;2023-02-01T00:38:42;1.80;99.90
4058;DHT22;2044;48.692;9.020;2023-02-01T00:41:12;1.80;99.90
4058;DHT22;2044;48.692;9.020;2023-02-01T00:43:40;1.80;99.90
4058;DHT22;2044;48.692;9.020;2023-02-01T00:46:07;1.90;99.90
4058;DHT22;2044;48.692;9.020;2023-02-01T00:48:34;1.90;99.90
4058;DHT22;2044;48.692;9.020;2023-02-01T00:51:01;1.90;99.90
4058;DHT22;2044;48.692;9.020;2023-02-01T00:53:28;1.90;99.90
4058;DHT22;2044;48.692;9.020;2023-02-01T00:55:55;1.90;99.90
4058;DHT22;2044;48.692;9.020;2023-02-01T00:58:23;1.90;99.90
4058;DHT22;2044;48.692;9.020;2023-02-01T01:01:00;1.90;99.90
4058;DHT22;2044;48.692;9.020;2023-02-01T01:03:27;1.80;99.90
4058;DHT22;2044;48.692;9.020;2023-02-01T01:05:56;1.80;99.90
4058;DHT22;2044;48.692;9.020;2023-02-01T01:08:23;1.80;99.90
4058;DHT22;2044;48.692;9.020;2023-02-01T01:10:50;1.80;99.90
4058;DHT22;2044;48.692;9.020;2023-02-01T01:13:17;1.90;99.90
4058;DHT22;2044;48.692;9.020;2023-02-01T01:15:45;1.90;99.90
4058;DHT22;2044;48.692;9.020;2023-02-01T01:18:11;1.90;99.90
4058;DHT22;2044;48.692;9.020;2023-02-01T01:20:40;1.80;99.90
4058;DHT22;2044;48.692;9.020;2023-02-01T01:23:08;1.80;99.90
4058;DHT22;2044;48.692;9.020;2023-02-01T01:25:37;1.80;99.90
4058;DHT22;2044;48.692;9.020;2023-02-01T01:28:04;1.90;99.90
4058;DHT22;2044;48.692;9.020;2023-02-01T01:30:31;1.80;99.90
4058;DHT22;2044;48.692;9.020;2023-02-01T01:32:59;1.80;99.90
4058;DHT22;2044;48.692;9.020;2023-02-01T01:35:28;1.80;99.90
4058;DHT22;2044;48.692;9.020;2023-02-01T01:37:55;1.80;99.90
4058;DHT22;2044;48.692;9.020;2023-02-01T01:40:21;1.80;99.90
4058;DHT22;2044;48.692;9.020;2023-02-01T01:42:48;1.80;99.90
4058;DHT22;2044;48.692;9.020;2023-02-01T01:45:23;1.80;99.90
4058;DHT22;2044;48.692;9.020;2023-02-01T01:47:52;1.80;99.90
4058;DHT22;2044;48.692;9.020;2023-02-01T01:50:24;1.80;99.90
4058;DHT22;2044;48.692;9.020;2023-02-01T01:52:53;1.80;99.90
4058;DHT22;2044;48.692;9.020;2023-02-01T01:55:22;1.80;99.90
4058;DHT22;2044;48.692;9.020;2023-02-01T01:57:55;1.70;99.90
4058;DHT22;2044;48.692;9.020;2023-02-01T02:00:23;1.70;99.90
4058;DHT22;2044;48.692;9.020;2023-02-01T02:02:54;1.80;99.90
4058;DHT22;2044;48.692;9.020;2023-02-01T02:05:25;1.80;99.90
4058;DHT22;2044;48.692;9.020;2023-02-01T02:07:58;1.80;99.90
4058;DHT22;2044;48.692;9.020;2023-02-01T02:10:24;1.80;99.90
4058;DHT22;2044;48.692;9.020;2023-02-01T02:13:12;1.80;99.90
4058;DHT22;2044;48.692;9.020;2023-02-01T02:15:43;1.80;99.90
4058;DHT22;2044;48.692;9.020;2023-02-01T02:18:17;1.80;99.90
4058;DHT22;2044;48.692;9.020;2023-02-01T02:21:09;1.80;99.90
4058;DHT22;2044;48.692;9.020;2023-02-01T02:24:00;1.90;99.90
4058;DHT22;2044;48.692;9.020;2023-02-01T02:26:56;1.90;99.90
4058;DHT22;2044;48.692;9.020;2023-02-01T02:29:55;1.90;99.90
4058;DHT22;2044;48.692;9.020;2023-02-01T02:32:47;1.90;99.90
4058;DHT22;2044;48.692;9.020;2023-02-01T02:35:24;1.90;99.90
4058;DHT22;2044;48.692;9.020;2023-02-01T02:37:56;1.90;99.90
4058;DHT22;2044;48.692;9.020;2023-02-01T02:40:32;2.00;99.90
4058;DHT22;2044;48.692;9.020;2023-02-01T02:43:05;2.00;99.90
4058;DHT22;2044;48.692;9.020;2023-02-01T02:45:57;2.00;99.90
4058;DHT22;2044;48.692;9.020;2023-02-01T02:48:47;2.10;99.90
4058;DHT22;2044;48.692;9.020;2023-02-01T02:51:21;2.10;99.90
4058;DHT22;2044;48.692;9.020;2023-02-01T02:54:10;2.10;99.90
4058;DHT22;2044;48.692;9.020;2023-02-01T02:56:57;2.10;99.90
4058;DHT22;2044;48.692;9.020;2023-02-01T02:59:43;2.10;99.90
4058;DHT22;2044;48.692;9.020;2023-02-01T03:02:28;2.10;99.90
4058;DHT22;2044;48.692;9.020;2023-02-01T03:05:13;2.10;99.90
4058;DHT22;2044;48.692;9.020;2023-02-01T03:08:00;2.10;99.90
4058;DHT22;2044;48.692;9.020;2023-02-01T03:10:35;2.20;99.90
4058;DHT22;2044;48.692;9.020;2023-02-01T03:13:06;2.10;99.90
4058;DHT22;2044;48.692;9.020;2023-02-01T03:15:37;2.20;99.90
4058;DHT22;2044;48.692;9.020;2023-02-01T03:18:10;2.20;99.90
4058;DHT22;2044;48.692;9.020;2023-02-01T03:20:40;2.20;99.90
4058;DHT22;2044;48.692;9.020;2023-02-01T03:23:10;2.20;99.90
4058;DHT22;2044;48.692;9.020;2023-02-01T03:25:38;2.20;99.90
4058;DHT22;2044;48.692;9.020;2023-02-01T03:28:07;2.20;99.90
4058;DHT22;2044;48.692;9.020;2023-02-01T03:30:38;2.20;99.90
4058;DHT22;2044;48.692;9.020;2023-02-01T03:33:10;2.30;99.90
4058;DHT22;2044;48.692;9.020;2023-02-01T03:35:43;2.30;99.90
4058;DHT22;2044;48.692;9.020;2023-02-01T03:38:19;2.30;99.90
4058;DHT22;2044;48.692;9.020;2023-02-01T03:40:51;2.30;99.90
4058;DHT22;2044;48.692;9.020;2023-02-01T03:43:20;2.40;99.90
4058;DHT22;2044;48.692;9.020;2023-02-01T03:45:51;2.40;99.90
4058;DHT22;2044;48.692;9.020;2023-02-01T03:48:20;2.40;99.90
4058;DHT22;2044;48.692;9.020;2023-02-01T03:50:50;2.40;99.90
4058;DHT22;2044;48.692;9.020;2023-02-01T03:53:22;2.40;99.90
4058;DHT22;2044;48.692;9.020;2023-02-01T03:55:51;2.40;99.90
4058;DHT22;2044;48.692;9.020;2023-02-01T03:58:20;2.40;99.90
4058;DHT22;2044;48.692;9.020;2023-02-01T04:00:52;2.40;99.90
4058;DHT22;2044;48.692;9.020;2023-02-01T04:03:20;2.40;99.90
4058;DHT22;2044;48.692;9.020;2023-02-01T04:05:48;2.40;99.90
4058;DHT22;2044;48.692;9.020;2023-02-01T04:08:15;2.40;99.90
4058;DHT22;2044;48.692;9.020;2023-02-01T04:10:43;2.40;99.90
4058;DHT22;2044;48.692;9.020;2023-02-01T04:13:10;2.40;99.90
4058;DHT22;2044;48.692;9.020;2023-02-01T04:15:37;2.40;99.90
4058;DHT22;2044;48.692;9.020;2023-02-01T04:18:04;2.40;99.90
4058;DHT22;2044;48.692;9.020;2023-02-01T04:20:31;2.50;99.90
4058;DHT22;2044;48.692;9.020;2023-02-01T04:22:58;2.40;99.90
4058;DHT22;2044;48.692;9.020;2023-02-01T04:25:24;2.40;99.90
4058;DHT22;2044;48.692;9.020;2023-02-01T04:27:52;2.40;99.90
4058;DHT22;2044;48.692;9.020;2023-02-01T04:30:19;2.50;99.90
4058;DHT22;2044;48.692;9.020;2023-02-01T04:32:46;2.50;99.90
4058;DHT22;2044;48.692;9.020;2023-02-01T04:35:12;2.50;99.90
4058;DHT22;2044;48.692;9.020;2023-02-01T04:37:39;2.50;99.90
4058;DHT22;2044;48.692;9.020;2023-02-01T04:40:07;2.50;99.90
4058;DHT22;2044;48.692;9.020;2023-02-01T04:42:34;2.50;99.90
4058;DHT22;2044;48.692;9.020;2023-02-01T04:45:02;2.40;99.90
4058;DHT22;2044;48.692;9.020;2023-02-01T04:47:29;2.40;99.90
4058;DHT22;2044;48.692;9.020;2023-02-01T04:49:55;2.40;99.90
4058;DHT22;2044;48.692;9.020;2023-02-01T04:52:22;2.30;99.90
4058;DHT22;2044;48.692;9.020;2023-02-01T04:54:49;2.40;99.90
4058;DHT22;2044;48.692;9.020;2023-02-01T04:57:15;2.40;99.90
4058;DHT22;2044;48.692;9.020;2023-02-01T04:59:42;2.40;99.90
4058;DHT22;2044;48.692;9.020;2023-02-01T05:02:10;2.40;99.90
4058;DHT22;2044;48.692;9.020;2023-02-01T05:04:37;2.40;99.90
4058;DHT22;2044;48.692;9.020;2023-02-01T05:07:03;2.40;99.90
4058;DHT22;2044;48.692;9.020;2023-02-01T05:09:30;2.30;99.90
4058;DHT22;2044;48.692;9.020;2023-02-01T05:11:57;2.30;99.90
4058;DHT22;2044;48.692;9.020;2023-02-01T05:14:41;2.30;99.90
4058;DHT22;2044;48.692;9.020;2023-02-01T05:17:09;2.30;99.90
4058;DHT22;2044;48.692;9.020;2023-02-01T05:19:36;2.20;99.90
4058;DHT22;2044;48.692;9.020;2023-02-01T05:22:03;2.20;99.90
4058;DHT22;2044;48.692;9.020;2023-02-01T05:24:29;2.30;99.90
4058;DHT22;2044;48.692;9.020;2023-02-01T05:26:56;2.30;99.90
4058;DHT22;2044;48.692;9.020;2023-02-01T05:29:23;2.30;99.90
4058;DHT22;2044;48.692;9.020;2023-02-01T05:31:49;1.40;99.90
4058;DHT22;2044;48.692;9.020;2023-02-01T05:34:17;2.30;99.90
4058;DHT22;2044;48.692;9.020;2023-02-01T05:36:44;2.30;99.90
4058;DHT22;2044;48.692;9.020;2023-02-01T05:39:11;2.30;99.90
4058;DHT22;2044;48.692;9.020;2023-02-01T05:41:38;2.30;99.90
4058;DHT22;2044;48.692;9.020;2023-02-01T05:44:04;2.30;99.90
4058;DHT22;2044;48.692;9.020;2023-02-01T05:46:32;2.30;99.90
4058;DHT22;2044;48.692;9.020;2023-02-01T05:48:59;2.30;99.90
4058;DHT22;2044;48.692;9.020;2023-02-01T05:51:27;2.30;99.90
4058;DHT22;2044;48.692;9.020;2023-02-01T05:56:21;2.30;99.90
4058;DHT22;2044;48.692;9.020;2023-02-01T05:58:48;2.30;99.90
4058;DHT22;2044;48.692;9.020;2023-02-01T06:01:14;2.30;99.90
4058;DHT22;2044;48.692;9.020;2023-02-01T06:03:41;2.40;99.90
4058;DHT22;2044;48.692;9.020;2023-02-01T06:06:08;2.30;99.90
4058;DHT22;2044;48.692;9.020;2023-02-01T06:08:36;2.30;99.90
4058;DHT22;2044;48.692;9.020;2023-02-01T06:11:06;2.30;99.90
4058;DHT22;2044;48.692;9.020;2023-02-01T06:13:33;2.30;99.90
4058;DHT22;2044;48.692;9.020;2023-02-01T06:16:01;2.30;99.90
4058;DHT22;2044;48.692;9.020;2023-02-01T06:18:28;2.30;99.90
4058;DHT22;2044;48.692;9.020;2023-02-01T06:20:57;2.30;99.90
4058;DHT22;2044;48.692;9.020;2023-02-01T06:23:25;2.30;99.90
4058;DHT22;2044;48.692;9.020;2023-02-01T06:25:58;2.30;99.90
4058;DHT22;2044;48.692;9.020;2023-02-01T06:28:26;2.30;99.90
4058;DHT22;2044;48.692;9.020;2023-02-01T06:30:52;2.30;99.90
4058;DHT22;2044;48.692;9.020;2023-02-01T06:33:19;2.40;99.90
4058;DHT22;2044;48.692;9.020;2023-02-01T06:35:46;2.30;99.90
4058;DHT22;2044;48.692;9.020;2023-02-01T06:38:13;2.40;99.90
4058;DHT22;2044;48.692;9.020;2023-02-01T06:40:40;2.40;99.90
4058;DHT22;2044;48.692;9.020;2023-02-01T06:43:09;2.50;99.90
4058;DHT22;2044;48.692;9.020;2023-02-01T06:45:35;2.50;99.90
4058;DHT22;2044;48.692;9.020;2023-02-01T06:48:02;2.50;99.90
4058;DHT22;2044;48.692;9.020;2023-02-01T06:50:29;2.60;99.90
4058;DHT22;2044;48.692;9.020;2023-02-01T06:52:55;2.60;99.90
4058;DHT22;2044;48.692;9.020;2023-02-01T06:55:22;2.60;99.90
4058;DHT22;2044;48.692;9.020;2023-02-01T06:57:53;2.60;99.90
4058;DHT22;2044;48.692;9.020;2023-02-01T07:00:22;2.60;99.90
4058;DHT22;2044;48.692;9.020;2023-02-01T07:02:49;2.70;99.90
4058;DHT22;2044;48.692;9.020;2023-02-01T07:05:16;2.70;99.90
4058;DHT22;2044;48.692;9.020;2023-02-01T07:07:43;2.70;99.90
4058;DHT22;2044;48.692;9.020;2023-02-01T07:10:11;2.70;99.90
4058;DHT22;2044;48.692;9.020;2023-02-01T07:12:37;2.70;99.90
4058;DHT22;2044;48.692;9.020;2023-02-01T07:15:05;2.70;99.90
4058;DHT22;2044;48.692;9.020;2023-02-01T07:17:33;2.70;99.90
4058;DHT22;2044;48.692;9.020;2023-02-01T07:20:00;2.80;99.90
4058;DHT22;2044;48.692;9.020;2023-02-01T07:22:27;2.80;99.90
4058;DHT22;2044;48.692;9.020;2023-02-01T07:24:54;2.80;99.90
4058;DHT22;2044;48.692;9.020;2023-02-01T07:27:21;2.80;99.90
4058;DHT22;2044;48.692;9.020;2023-02-01T07:29:50;2.90;99.90
4058;DHT22;2044;48.692;9.020;2023-02-01T07:32:17;2.80;99.90
4058;DHT22;2044;48.692;9.020;2023-02-01T07:34:45;2.90;99.90
4058;DHT22;2044;48.692;9.020;2023-02-01T07:37:11;2.90;99.90
4058;DHT22;2044;48.692;9.020;2023-02-01T07:39:38;2.90;99.90
4058;DHT22;2044;48.692;9.020;2023-02-01T07:42:05;2.90;99.90
4058;DHT22;2044;48.692;9.020;2023-02-01T07:44:32;3.00;99.90
4058;DHT22;2044;48.692;9.020;2023-02-01T07:46:59;3.00;99.90
4058;DHT22;2044;48.692;9.020;2023-02-01T07:49:26;3.00;99.90
4058;DHT22;2044;48.692;9.020;2023-02-01T07:51:54;3.00;99.90
4058;DHT22;2044;48.692;9.020;2023-02-01T07:54:20;2.90;99.90
4058;DHT22;2044;48.692;9.020;2023-02-01T07:56:49;3.00;99.90
4058;DHT22;2044;48.692;9.020;2023-02-01T07:59:16;3.00;99.90
4058;DHT22;2044;48.692;9.020;2023-02-01T08:01:43;3.00;99.90
4058;DHT22;2044;48.692;9.020;2023-02-01T08:04:11;3.00;99.90
4058;DHT22;2044;48.692;9.020;2023-02-01T08:06:39;3.00;99.90
4058;DHT22;2044;48.692;9.020;2023-02-01T08:09:07;3.00;99.90
4058;DHT22;2044;48.692;9.020;2023-02-01T08:11:36;3.00;99.90
4058;DHT22;2044;48.692;9.020;2023-02-01T08:14:04;3.00;99.90
4058;DHT22;2044;48.692;9.020;2023-02-01T08:16:31;3.10;99.90
4058;DHT22;2044;48.692;9.020;2023-02-01T08:19:00;3.00;99.90
4058;DHT22;2044;48.692;9.020;2023-02-01T08:21:28;3.10;99.90
4058;DHT22;2044;48.692;9.020;2023-02-01T08:24:03;3.20;99.90
4058;DHT22;2044;48.692;9.020;2023-02-01T08:26:31;3.20;99.90
4058;DHT22;2044;48.692;9.020;2023-02-01T08:28:59;3.20;99.90
4058;DHT22;2044;48.692;9.020;2023-02-01T08:31:28;3.30;99.90
4058;DHT22;2044;48.692;9.020;2023-02-01T08:33:57;3.40;99.90
4058;DHT22;2044;48.692;9.020;2023-02-01T08:36:25;3.50;99.90
4058;DHT22;2044;48.692;9.020;2023-02-01T08:38:52;3.50;99.90
4058;DHT22;2044;48.692;9.020;2023-02-01T08:41:21;3.70;99.90
4058;DHT22;2044;48.692;9.020;2023-02-01T08:43:49;3.80;27.20
4058;DHT22;2044;48.692;9.020;2023-02-01T08:46:16;3.80;4.10
4058;DHT22;2044;48.692;9.020;2023-02-01T08:48:45;3.90;1.00
4058;DHT22;2044;48.692;9.020;2023-02-01T08:51:13;3.90;1.00
4058;DHT22;2044;48.692;9.020;2023-02-01T08:53:41;3.90;1.00
4058;DHT22;2044;48.692;9.020;2023-02-01T08:56:09;3.90;1.00
4058;DHT22;2044;48.692;9.020;2023-02-01T08:58:35;3.90;1.00
4058;DHT22;2044;48.692;9.020;2023-02-01T09:01:05;3.90;1.00
4058;DHT22;2044;48.692;9.020;2023-02-01T09:03:32;3.90;1.00
4058;DHT22;2044;48.692;9.020;2023-02-01T09:06:02;3.90;1.00
4058;DHT22;2044;48.692;9.020;2023-02-01T09:08:29;3.90;1.00
4058;DHT22;2044;48.692;9.020;2023-02-01T09:10:59;3.90;1.00
4058;DHT22;2044;48.692;9.020;2023-02-01T09:13:27;3.80;1.00
4058;DHT22;2044;48.692;9.020;2023-02-01T09:15:54;3.80;1.00
4058;DHT22;2044;48.692;9.020;2023-02-01T09:18:22;3.80;1.00
4058;DHT22;2044;48.692;9.020;2023-02-01T09:20:48;3.90;1.00
4058;DHT22;2044;48.692;9.020;2023-02-01T09:23:15;3.80;1.00
4058;DHT22;2044;48.692;9.020;2023-02-01T09:25:42;3.80;1.00
4058;DHT22;2044;48.692;9.020;2023-02-01T09:28:09;3.80;1.00
4058;DHT22;2044;48.692;9.020;2023-02-01T09:30:36;3.80;1.00
4058;DHT22;2044;48.692;9.020;2023-02-01T09:33:03;3.80;1.00
4058;DHT22;2044;48.692;9.020;2023-02-01T09:35:32;3.80;1.00
4058;DHT22;2044;48.692;9.020;2023-02-01T09:37:58;3.80;1.00
4058;DHT22;2044;48.692;9.020;2023-02-01T09:40:25;3.90;1.00
4058;DHT22;2044;48.692;9.020;2023-02-01T09:43:06;4.00;1.00
4058;DHT22;2044;48.692;9.020;2023-02-01T09:45:42;4.10;1.00
4058;DHT22;2044;48.692;9.020;2023-02-01T09:48:14;4.20;99.90
4058;DHT22;2044;48.692;9.020;2023-02-01T09:50:47;4.30;99.90
4058;DHT22;2044;48.692;9.020;2023-02-01T09:53:18;4.30;34.10
4058;DHT22;2044;48.692;9.020;2023-02-01T09:55:50;4.40;1.20
4058;DHT22;2044;48.692;9.020;2023-02-01T09:58:22;4.30;1.00
4058;DHT22;2044;48.692;9.020;2023-02-01T10:00:53;4.30;1.00
4058;DHT22;2044;48.692;9.020;2023-02-01T10:03:20;4.60;99.90
4058;DHT22;2044;48.692;9.020;2023-02-01T10:08:57;4.60;99.90
4058;DHT22;2044;48.692;9.020;2023-02-01T10:11:35;4.70;1.00
4058;DHT22;2044;48.692;9.020;2023-02-01T10:14:29;4.90;1.00
4058;DHT22;2044;48.692;9.020;2023-02-01T10:17:07;4.90;1.00
4058;DHT22;2044;48.692;9.020;2023-02-01T10:19:43;4.70;99.90
4058;DHT22;2044;48.692;9.020;2023-02-01T10:22:22;4.60;99.90
4058;DHT22;2044;48.692;9.020;2023-02-01T10:24:58;4.50;99.90
4058;DHT22;2044;48.692;9.020;2023-02-01T10:27:29;4.60;1.00
4058;DHT22;2044;48.692;9.020;2023-02-01T10:30:04;4.70;1.00
4058;DHT22;2044;48.692;9.020;2023-02-01T10:32:34;4.60;1.00
4058;DHT22;2044;48.692;9.020;2023-02-01T10:35:04;4.60;5.50
4058;DHT22;2044;48.692;9.020;2023-02-01T10:37:36;4.60;1.00
4058;DHT22;2044;48.692;9.020;2023-02-01T10:40:15;4.60;1.00
4058;DHT22;2044;48.692;9.020;2023-02-01T10:42:43;4.70;99.90
4058;DHT22;2044;48.692;9.020;2023-02-01T10:45:13;4.70;99.90
4058;DHT22;2044;48.692;9.020;2023-02-01T10:47:41;4.80;1.00
4058;DHT22;2044;48.692;9.020;2023-02-01T10:50:16;4.80;99.90
4058;DHT22;2044;48.692;9.020;2023-02-01T10:52:52;4.90;99.90
4058;DHT22;2044;48.692;9.020;2023-02-01T10:55:38;4.90;1.00
4058;DHT22;2044;48.692;9.020;2023-02-01T10:58:07;4.90;1.00
4058;DHT22;2044;48.692;9.020;2023-02-01T11:00:45;4.90;1.00
4058;DHT22;2044;48.692;9.020;2023-02-01T11:03:34;4.90;1.00
4058;DHT22;2044;48.692;9.020;2023-02-01T11:06:14;5.00;1.00
4058;DHT22;2044;48.692;9.020;2023-02-01T11:08:48;4.90;1.00
4058;DHT22;2044;48.692;9.020;2023-02-01T11:13:42;4.90;1.00
4058;DHT22;2044;48.692;9.020;2023-02-01T11:16:12;4.90;99.90
4058;DHT22;2044;48.692;9.020;2023-02-01T11:21:09;4.90;99.90
4058;DHT22;2044;48.692;9.020;2023-02-01T11:23:41;4.90;99.90
4058;DHT22;2044;48.692;9.020;2023-02-01T11:26:13;5.00;23.80
4058;DHT22;2044;48.692;9.020;2023-02-01T11:28:51;4.90;1.00
4058;DHT22;2044;48.692;9.020;2023-02-01T11:33:50;4.90;99.90
4058;DHT22;2044;48.692;9.020;2023-02-01T11:36:18;4.90;12.90
4058;DHT22;2044;48.692;9.020;2023-02-01T11:38:52;4.80;99.90
4058;DHT22;2044;48.692;9.020;2023-02-01T11:41:24;4.80;99.90
4058;DHT22;2044;48.692;9.020;2023-02-01T11:43:53;4.80;1.00
4058;DHT22;2044;48.692;9.020;2023-02-01T11:46:23;4.90;1.00
4058;DHT22;2044;48.692;9.020;2023-02-01T11:48:52;4.90;99.90
4058;DHT22;2044;48.692;9.020;2023-02-01T11:51:30;4.80;99.90
4058;DHT22;2044;48.692;9.020;2023-02-01T11:54:10;4.80;99.90
4058;DHT22;2044;48.692;9.020;2023-02-01T11:56:48;4.70;99.90
4058;DHT22;2044;48.692;9.020;2023-02-01T11:59:26;4.50;99.90
4058;DHT22;2044;48.692;9.020;2023-02-01T12:05:27;4.60;1.00
4058;DHT22;2044;48.692;9.020;2023-02-01T12:08:13;4.60;1.00
4058;DHT22;2044;48.692;9.020;2023-02-01T12:10:51;4.50;99.90
4058;DHT22;2044;48.692;9.020;2023-02-01T12:13:35;4.50;99.90
4058;DHT22;2044;48.692;9.020;2023-02-01T12:16:14;4.50;99.90
4058;DHT22;2044;48.692;9.020;2023-02-01T12:18:57;4.50;99.90
4058;DHT22;2044;48.692;9.020;2023-02-01T12:21:50;4.50;1.00
4058;DHT22;2044;48.692;9.020;2023-02-01T12:30:38;4.60;1.00
4058;DHT22;2044;48.692;9.020;2023-02-01T12:33:14;4.60;1.00
4058;DHT22;2044;48.692;9.020;2023-02-01T12:35:53;4.60;1.00
4058;DHT22;2044;48.692;9.020;2023-02-01T12:38:37;4.50;99.90
4058;DHT22;2044;48.692;9.020;2023-02-01T12:41:21;4.50;1.00
4058;DHT22;2044;48.692;9.020;2023-02-01T12:43:54;4.60;99.90
4058;DHT22;2044;48.692;9.020;2023-02-01T12:46:27;4.60;84.90
4058;DHT22;2044;48.692;9.020;2023-02-01T12:48:59;4.60;99.90
4058;DHT22;2044;48.692;9.020;2023-02-01T12:51:29;4.60;99.90
4058;DHT22;2044;48.692;9.020;2023-02-01T12:54:02;4.50;99.90
4058;DHT22;2044;48.692;9.020;2023-02-01T12:56:34;4.50;99.90
4058;DHT22;2044;48.692;9.020;2023-02-01T12:59:05;4.60;28.90
4058;DHT22;2044;48.692;9.020;2023-02-01T13:01:40;4.70;99.90
4058;DHT22;2044;48.692;9.020;2023-02-01T13:04:14;4.70;99.90
4058;DHT22;2044;48.692;9.020;2023-02-01T13:06:46;4.70;99.90
4058;DHT22;2044;48.692;9.020;2023-02-01T13:09:21;4.60;1.00
4058;DHT22;2044;48.692;9.020;2023-02-01T13:11:51;4.60;99.90
4058;DHT22;2044;48.692;9.020;2023-02-01T13:14:25;4.60;99.90
4058;DHT22;2044;48.692;9.020;2023-02-01T13:16:59;4.60;99.90
4058;DHT22;2044;48.692;9.020;2023-02-01T13:19:32;4.60;99.90
4058;DHT22;2044;48.692;9.020;2023-02-01T13:22:05;4.60;1.00
4058;DHT22;2044;48.692;9.020;2023-02-01T13:24:38;4.50;31.20
4058;DHT22;2044;48.692;9.020;2023-02-01T13:27:10;4.60;99.90
4058;DHT22;2044;48.692;9.020;2023-02-01T13:29:46;4.50;99.90
4058;DHT22;2044;48.692;9.020;2023-02-01T13:32:39;4.60;1.00
4058;DHT22;2044;48.692;9.020;2023-02-01T13:35:40;4.50;13.70
4058;DHT22;2044;48.692;9.020;2023-02-01T13:38:43;4.40;99.90
4058;DHT22;2044;48.692;9.020;2023-02-01T13:41:21;4.50;99.90
4058;DHT22;2044;48.692;9.020;2023-02-01T13:43:54;4.60;1.00
4058;DHT22;2044;48.692;9.020;2023-02-01T13:46:22;4.60;1.00
4058;DHT22;2044;48.692;9.020;2023-02-01T13:48:53;4.60;99.90
4058;DHT22;2044;48.692;9.020;2023-02-01T13:51:34;4.50;17.50
4058;DHT22;2044;48.692;9.020;2023-02-01T13:56:39;4.50;94.40
4058;DHT22;2044;48.692;9.020;2023-02-01T13:59:47;4.40;99.90
4058;DHT22;2044;48.692;9.020;2023-02-01T14:08:35;4.50;99.90
4058;DHT22;2044;48.692;9.020;2023-02-01T14:11:03;4.50;99.90
4058;DHT22;2044;48.692;9.020;2023-02-01T14:13:32;4.50;1.00
4058;DHT22;2044;48.692;9.020;2023-02-01T14:16:14;4.50;1.00
4058;DHT22;2044;48.692;9.020;2023-02-01T14:19:00;4.50;1.00
4058;DHT22;2044;48.692;9.020;2023-02-01T14:21:30;4.50;1.00
4058;DHT22;2044;48.692;9.020;2023-02-01T14:24:04;4.50;1.00
4058;DHT22;2044;48.692;9.020;2023-02-01T14:26:43;4.50;1.00
4058;DHT22;2044;48.692;9.020;2023-02-01T14:29:21;4.50;1.00
4058;DHT22;2044;48.692;9.020;2023-02-01T14:31:54;4.50;99.90
4058;DHT22;2044;48.692;9.020;2023-02-01T14:34:34;4.50;99.90
4058;DHT22;2044;48.692;9.020;2023-02-01T14:37:05;4.40;99.90
4058;DHT22;2044;48.692;9.020;2023-02-01T14:39:49;4.40;99.90
4058;DHT22;2044;48.692;9.020;2023-02-01T14:42:27;4.40;99.90
4058;DHT22;2044;48.692;9.020;2023-02-01T14:44:57;4.40;99.90
4058;DHT22;2044;48.692;9.020;2023-02-01T14:47:43;4.40;1.00
4058;DHT22;2044;48.692;9.020;2023-02-01T14:50:20;4.40;1.00
4058;DHT22;2044;48.692;9.020;2023-02-01T14:53:01;4.40;1.00
4058;DHT22;2044;48.692;9.020;2023-02-01T14:55:35;4.40;99.90
4058;DHT22;2044;48.692;9.020;2023-02-01T14:58:06;4.40;1.00
4058;DHT22;2044;48.692;9.020;2023-02-01T15:00:47;4.40;1.00
4058;DHT22;2044;48.692;9.020;2023-02-01T15:03:34;4.40;99.90
4058;DHT22;2044;48.692;9.020;2023-02-01T15:06:01;4.40;99.90
4058;DHT22;2044;48.692;9.020;2023-02-01T15:08:33;4.40;99.90
4058;DHT22;2044;48.692;9.020;2023-02-01T15:11:05;4.40;99.90
4058;DHT22;2044;48.692;9.020;2023-02-01T15:20:59;4.50;99.90
4058;DHT22;2044;48.692;9.020;2023-02-01T15:23:27;4.40;99.90
4058;DHT22;2044;48.692;9.020;2023-02-01T15:25:55;4.40;99.90
4058;DHT22;2044;48.692;9.020;2023-02-01T15:28:24;4.40;99.90
4058;DHT22;2044;48.692;9.020;2023-02-01T15:30:56;4.50;58.70
4058;DHT22;2044;48.692;9.020;2023-02-01T15:33:23;4.50;99.90
4058;DHT22;2044;48.692;9.020;2023-02-01T15:35:51;4.40;99.90
4058;DHT22;2044;48.692;9.020;2023-02-01T15:38:20;4.40;99.90
4058;DHT22;2044;48.692;9.020;2023-02-01T15:40:55;4.40;1.00
4058;DHT22;2044;48.692;9.020;2023-02-01T15:43:24;4.30;1.00
4058;DHT22;2044;48.692;9.020;2023-02-01T15:45:56;4.30;99.90
4058;DHT22;2044;48.692;9.020;2023-02-01T15:48:25;4.30;11.70
4058;DHT22;2044;48.692;9.020;2023-02-01T15:50:53;4.30;1.00
4058;DHT22;2044;48.692;9.020;2023-02-01T15:53:23;4.20;99.90
4058;DHT22;2044;48.692;9.020;2023-02-01T15:55:52;4.20;99.90
4058;DHT22;2044;48.692;9.020;2023-02-01T15:58:22;4.20;99.90
4058;DHT22;2044;48.692;9.020;2023-02-01T16:00:52;4.10;99.90
4058;DHT22;2044;48.692;9.020;2023-02-01T16:03:32;4.10;99.90
4058;DHT22;2044;48.692;9.020;2023-02-01T16:06:02;4.10;99.90
4058;DHT22;2044;48.692;9.020;2023-02-01T16:08:30;4.10;99.90
4058;DHT22;2044;48.692;9.020;2023-02-01T16:11:10;4.10;1.00
4058;DHT22;2044;48.692;9.020;2023-02-01T16:13:40;4.10;97.30
4058;DHT22;2044;48.692;9.020;2023-02-01T16:16:09;4.00;99.90
4058;DHT22;2044;48.692;9.020;2023-02-01T16:18:39;3.90;99.90
4058;DHT22;2044;48.692;9.020;2023-02-01T16:21:06;4.00;1.00
4058;DHT22;2044;48.692;9.020;2023-02-01T16:23:34;3.90;99.90
4058;DHT22;2044;48.692;9.020;2023-02-01T16:26:00;3.90;99.90
4058;DHT22;2044;48.692;9.020;2023-02-01T16:28:27;3.90;99.60
4058;DHT22;2044;48.692;9.020;2023-02-01T16:30:54;3.90;18.80
4058;DHT22;2044;48.692;9.020;2023-02-01T16:33:22;3.90;99.90
4058;DHT22;2044;48.692;9.020;2023-02-01T16:35:51;3.90;74.40
4058;DHT22;2044;48.692;9.020;2023-02-01T16:38:19;3.90;1.00
4058;DHT22;2044;48.692;9.020;2023-02-01T16:40:48;3.80;1.00
4058;DHT22;2044;48.692;9.020;2023-02-01T16:43:17;3.80;1.00
4058;DHT22;2044;48.692;9.020;2023-02-01T16:45:47;3.80;99.90
4058;DHT22;2044;48.692;9.020;2023-02-01T16:48:19;3.80;99.90
4058;DHT22;2044;48.692;9.020;2023-02-01T16:50:50;3.90;99.90
4058;DHT22;2044;48.692;9.020;2023-02-01T16:53:19;3.90;1.00
4058;DHT22;2044;48.692;9.020;2023-02-01T16:55:46;3.90;1.00
4058;DHT22;2044;48.692;9.020;2023-02-01T16:58:15;3.90;1.00
4058;DHT22;2044;48.692;9.020;2023-02-01T17:00:46;3.90;58.40
4058;DHT22;2044;48.692;9.020;2023-02-01T17:03:14;3.90;1.00
4058;DHT22;2044;48.692;9.020;2023-02-01T17:05:43;3.90;1.00
4058;DHT22;2044;48.692;9.020;2023-02-01T17:08:17;3.90;1.00
4058;DHT22;2044;48.692;9.020;2023-02-01T17:10:45;3.90;1.00
4058;DHT22;2044;48.692;9.020;2023-02-01T17:15:49;3.90;1.00
4058;DHT22;2044;48.692;9.020;2023-02-01T17:18:17;3.90;99.90
4058;DHT22;2044;48.692;9.020;2023-02-01T17:23:14;3.90;1.00
4058;DHT22;2044;48.692;9.020;2023-02-01T17:25:41;3.90;1.00
4058;DHT22;2044;48.692;9.020;2023-02-01T17:28:09;3.90;99.90
4058;DHT22;2044;48.692;9.020;2023-02-01T17:30:36;3.80;1.00
4058;DHT22;2044;48.692;9.020;2023-02-01T17:40:26;3.90;1.00
4058;DHT22;2044;48.692;9.020;2023-02-01T17:42:54;3.80;48.10
4058;DHT22;2044;48.692;9.020;2023-02-01T17:45:32;3.80;99.90